sensor_id;sensor_type;location;lat;lon;timestamp;P1;durP1;ratioP1;P2;durP2;ratioP2
24151;SDS011;12311;50.866;4.332;2023-02-18T00:02:08;8.68;;;4.10;;
24151;SDS011;12311;50.866;4.332;2023-02-18T00:04:34;10.00;;;3.83;;
24151;SDS011;12311;50.866;4.332;2023-02-18T00:07:00;8.93;;;4.03;;
24151;SDS011;12311;50.866;4.332;2023-02-18T00:09:26;9.05;;;2.72;;
24151;SDS011;12311;50.866;4.332;2023-02-18T00:11:51;8.00;;;3.70;;
24151;SDS011;12311;50.866;4.332;2023-02-18T00:14:17;8.60;;;3.63;;
24151;SDS011;12311;50.866;4.332;2023-02-18T00:16:43;5.63;;;2.63;;
24151;SDS011;12311;50.866;4.332;2023-02-18T00:19:11;4.60;;;2.22;;
24151;SDS011;12311;50.866;4.332;2023-02-18T00:21:38;4.78;;;2.30;;
24151;SDS011;12311;50.866;4.332;2023-02-18T00:24:04;4.13;;;2.30;;
24151;SDS011;12311;50.866;4.332;2023-02-18T00:26:30;4.72;;;2.35;;
24151;SDS011;12311;50.866;4.332;2023-02-18T00:28:57;7.28;;;2.47;;
24151;SDS011;12311;50.866;4.332;2023-02-18T00:31:27;6.25;;;2.75;;
24151;SDS011;12311;50.866;4.332;2023-02-18T00:36:21;7.45;;;2.97;;
24151;SDS011;12311;50.866;4.332;2023-02-18T00:38:48;7.78;;;2.35;;
24151;SDS011;12311;50.866;4.332;2023-02-18T00:41:18;9.50;;;2.47;;
24151;SDS011;12311;50.866;4.332;2023-02-18T00:43:45;5.60;;;1.95;;
24151;SDS011;12311;50.866;4.332;2023-02-18T00:46:10;7.60;;;2.50;;
24151;SDS011;12311;50.866;4.332;2023-02-18T00:48:36;6.85;;;2.75;;
24151;SDS011;12311;50.866;4.332;2023-02-18T00:51:03;7.18;;;2.03;;
24151;SDS011;12311;50.866;4.332;2023-02-18T00:53:29;9.70;;;2.85;;
24151;SDS011;12311;50.866;4.332;2023-02-18T00:55:54;5.97;;;2.05;;
24151;SDS011;12311;50.866;4.332;2023-02-18T00:58:20;3.38;;;1.85;;
24151;SDS011;12311;50.866;4.332;2023-02-18T01:00:46;4.05;;;2.83;;
24151;SDS011;12311;50.866;4.332;2023-02-18T01:03:12;6.70;;;2.70;;
24151;SDS011;12311;50.866;4.332;2023-02-18T01:05:38;4.93;;;1.80;;
24151;SDS011;12311;50.866;4.332;2023-02-18T01:08:05;5.00;;;2.53;;
24151;SDS011;12311;50.866;4.332;2023-02-18T01:10:32;3.83;;;1.52;;
24151;SDS011;12311;50.866;4.332;2023-02-18T01:12:59;8.32;;;2.17;;
24151;SDS011;12311;50.866;4.332;2023-02-18T01:15:28;3.85;;;2.03;;
24151;SDS011;12311;50.866;4.332;2023-02-18T01:17:54;4.63;;;1.90;;
24151;SDS011;12311;50.866;4.332;2023-02-18T01:20:20;4.05;;;1.67;;
24151;SDS011;12311;50.866;4.332;2023-02-18T01:22:45;5.22;;;1.65;;
24151;SDS011;12311;50.866;4.332;2023-02-18T01:25:11;4.88;;;1.40;;
24151;SDS011;12311;50.866;4.332;2023-02-18T01:27:37;5.38;;;2.15;;
24151;SDS011;12311;50.866;4.332;2023-02-18T01:30:03;3.22;;;1.63;;
24151;SDS011;12311;50.866;4.332;2023-02-18T01:32:30;4.07;;;1.35;;
24151;SDS011;12311;50.866;4.332;2023-02-18T01:34:56;4.22;;;1.48;;
24151;SDS011;12311;50.866;4.332;2023-02-18T01:37:24;2.67;;;1.00;;
24151;SDS011;12311;50.866;4.332;2023-02-18T01:39:50;1.92;;;0.90;;
24151;SDS011;12311;50.866;4.332;2023-02-18T01:42:17;1.85;;;1.25;;
24151;SDS011;12311;50.866;4.332;2023-02-18T01:44:47;3.05;;;1.02;;
24151;SDS011;12311;50.866;4.332;2023-02-18T01:47:13;1.58;;;0.85;;
24151;SDS011;12311;50.866;4.332;2023-02-18T01:49:40;1.33;;;0.82;;
24151;SDS011;12311;50.866;4.332;2023-02-18T01:52:08;1.58;;;0.70;;
24151;SDS011;12311;50.866;4.332;2023-02-18T01:54:48;1.10;;;0.90;;
24151;SDS011;12311;50.866;4.332;2023-02-18T01:57:20;2.60;;;0.88;;
24151;SDS011;12311;50.866;4.332;2023-02-18T02:02:27;2.10;;;1.02;;
24151;SDS011;12311;50.866;4.332;2023-02-18T02:04:56;0.73;;;0.63;;
24151;SDS011;12311;50.866;4.332;2023-02-18T02:07:22;2.58;;;0.90;;
24151;SDS011;12311;50.866;4.332;2023-02-18T02:09:50;4.05;;;1.08;;
24151;SDS011;12311;50.866;4.332;2023-02-18T02:17:26;1.10;;;1.00;;
24151;SDS011;12311;50.866;4.332;2023-02-18T02:39:18;1.95;;;1.00;;
24151;SDS011;12311;50.866;4.332;2023-02-18T02:41:51;1.17;;;0.80;;
24151;SDS011;12311;50.866;4.332;2023-02-18T02:47:06;0.75;;;0.70;;
24151;SDS011;12311;50.866;4.332;2023-02-18T02:52:12;0.43;;;0.40;;
24151;SDS011;12311;50.866;4.332;2023-02-18T02:54:44;1.60;;;0.68;;
24151;SDS011;12311;50.866;4.332;2023-02-18T02:59:36;2.28;;;0.82;;
24151;SDS011;12311;50.866;4.332;2023-02-18T03:12:58;1.05;;;0.65;;
24151;SDS011;12311;50.866;4.332;2023-02-18T03:15:53;1.35;;;0.88;;
24151;SDS011;12311;50.866;4.332;2023-02-18T03:18:50;0.65;;;0.52;;
24151;SDS011;12311;50.866;4.332;2023-02-18T03:21:27;0.75;;;0.40;;
24151;SDS011;12311;50.866;4.332;2023-02-18T03:26:53;1.98;;;0.70;;
24151;SDS011;12311;50.866;4.332;2023-02-18T03:29:22;1.38;;;0.70;;
24151;SDS011;12311;50.866;4.332;2023-02-18T03:31:50;0.60;;;0.50;;
24151;SDS011;12311;50.866;4.332;2023-02-18T03:34:22;14.07;;;0.83;;
24151;SDS011;12311;50.866;4.332;2023-02-18T03:36:52;1.38;;;0.60;;
24151;SDS011;12311;50.866;4.332;2023-02-18T03:39:20;0.55;;;0.47;;
24151;SDS011;12311;50.866;4.332;2023-02-18T03:41:50;0.43;;;0.43;;
24151;SDS011;12311;50.866;4.332;2023-02-18T03:44:15;1.02;;;0.52;;
24151;SDS011;12311;50.866;4.332;2023-02-18T03:46:41;0.50;;;0.50;;
24151;SDS011;12311;50.866;4.332;2023-02-18T03:49:10;0.32;;;0.32;;
24151;SDS011;12311;50.866;4.332;2023-02-18T03:51:37;1.02;;;0.63;;
24151;SDS011;12311;50.866;4.332;2023-02-18T03:54:03;0.98;;;0.60;;
24151;SDS011;12311;50.866;4.332;2023-02-18T03:56:29;3.53;;;0.90;;
24151;SDS011;12311;50.866;4.332;2023-02-18T03:58:55;0.80;;;0.57;;
24151;SDS011;12311;50.866;4.332;2023-02-18T04:01:20;1.08;;;0.80;;
24151;SDS011;12311;50.866;4.332;2023-02-18T04:03:46;5.32;;;0.75;;
24151;SDS011;12311;50.866;4.332;2023-02-18T04:06:12;0.88;;;0.77;;
24151;SDS011;12311;50.866;4.332;2023-02-18T04:08:38;1.42;;;0.85;;
24151;SDS011;12311;50.866;4.332;2023-02-18T04:11:03;0.60;;;0.52;;
24151;SDS011;12311;50.866;4.332;2023-02-18T04:13:29;1.23;;;0.65;;
24151;SDS011;12311;50.866;4.332;2023-02-18T04:15:55;1.20;;;0.90;;
24151;SDS011;12311;50.866;4.332;2023-02-18T04:18:21;0.98;;;0.60;;
24151;SDS011;12311;50.866;4.332;2023-02-18T04:20:47;1.48;;;0.68;;
24151;SDS011;12311;50.866;4.332;2023-02-18T04:23:13;0.60;;;0.40;;
24151;SDS011;12311;50.866;4.332;2023-02-18T04:25:39;1.13;;;0.55;;
24151;SDS011;12311;50.866;4.332;2023-02-18T04:28:05;0.30;;;0.30;;
24151;SDS011;12311;50.866;4.332;2023-02-18T04:30:31;0.80;;;0.70;;
24151;SDS011;12311;50.866;4.332;2023-02-18T04:32:57;0.93;;;0.55;;
24151;SDS011;12311;50.866;4.332;2023-02-18T04:35:22;1.67;;;0.52;;
24151;SDS011;12311;50.866;4.332;2023-02-18T04:37:48;0.93;;;0.50;;
24151;SDS011;12311;50.866;4.332;2023-02-18T04:40:14;0.47;;;0.40;;
24151;SDS011;12311;50.866;4.332;2023-02-18T04:42:40;1.02;;;0.45;;
24151;SDS011;12311;50.866;4.332;2023-02-18T04:45:06;1.50;;;0.85;;
24151;SDS011;12311;50.866;4.332;2023-02-18T04:47:32;1.10;;;0.43;;
24151;SDS011;12311;50.866;4.332;2023-02-18T04:49:58;1.98;;;0.80;;
24151;SDS011;12311;50.866;4.332;2023-02-18T04:52:23;0.68;;;0.45;;
24151;SDS011;12311;50.866;4.332;2023-02-18T04:54:49;1.30;;;0.75;;
24151;SDS011;12311;50.866;4.332;2023-02-18T04:57:15;1.00;;;0.65;;
24151;SDS011;12311;50.866;4.332;2023-02-18T04:59:41;1.23;;;0.80;;
24151;SDS011;12311;50.866;4.332;2023-02-18T05:02:07;1.42;;;1.02;;
24151;SDS011;12311;50.866;4.332;2023-02-18T05:04:32;1.60;;;0.60;;
24151;SDS011;12311;50.866;4.332;2023-02-18T05:06:58;1.67;;;1.02;;
24151;SDS011;12311;50.866;4.332;2023-02-18T05:09:24;1.30;;;0.70;;
24151;SDS011;12311;50.866;4.332;2023-02-18T05:11:49;0.68;;;0.45;;
24151;SDS011;12311;50.866;4.332;2023-02-18T05:14:15;1.27;;;0.75;;
24151;SDS011;12311;50.866;4.332;2023-02-18T05:16:41;0.52;;;0.43;;
24151;SDS011;12311;50.866;4.332;2023-02-18T05:19:07;3.30;;;0.77;;
24151;SDS011;12311;50.866;4.332;2023-02-18T05:21:34;1.13;;;0.70;;
24151;SDS011;12311;50.866;4.332;2023-02-18T05:24:00;0.55;;;0.35;;
24151;SDS011;12311;50.866;4.332;2023-02-18T05:26:26;0.63;;;0.40;;
24151;SDS011;12311;50.866;4.332;2023-02-18T05:28:51;4.45;;;0.85;;
24151;SDS011;12311;50.866;4.332;2023-02-18T05:31:17;1.15;;;0.50;;
24151;SDS011;12311;50.866;4.332;2023-02-18T05:33:42;0.90;;;0.70;;
24151;SDS011;12311;50.866;4.332;2023-02-18T05:36:08;1.25;;;0.77;;
24151;SDS011;12311;50.866;4.332;2023-02-18T05:38:34;0.55;;;0.40;;
24151;SDS011;12311;50.866;4.332;2023-02-18T05:40:59;0.88;;;0.47;;
24151;SDS011;12311;50.866;4.332;2023-02-18T05:43:25;1.08;;;0.60;;
24151;SDS011;12311;50.866;4.332;2023-02-18T05:45:51;3.83;;;1.05;;
24151;SDS011;12311;50.866;4.332;2023-02-18T05:48:16;1.55;;;1.05;;
24151;SDS011;12311;50.866;4.332;2023-02-18T05:50:42;2.05;;;0.57;;
24151;SDS011;12311;50.866;4.332;2023-02-18T05:53:08;0.88;;;0.50;;
24151;SDS011;12311;50.866;4.332;2023-02-18T05:55:33;0.95;;;0.88;;
24151;SDS011;12311;50.866;4.332;2023-02-18T05:58:03;2.28;;;1.15;;
24151;SDS011;12311;50.866;4.332;2023-02-18T06:00:29;1.25;;;0.75;;
24151;SDS011;12311;50.866;4.332;2023-02-18T06:02:56;2.40;;;0.85;;
24151;SDS011;12311;50.866;4.332;2023-02-18T06:05:22;1.75;;;0.70;;
24151;SDS011;12311;50.866;4.332;2023-02-18T06:07:48;5.65;;;1.25;;
24151;SDS011;12311;50.866;4.332;2023-02-18T06:10:14;1.75;;;0.50;;
24151;SDS011;12311;50.866;4.332;2023-02-18T06:12:39;4.25;;;1.42;;
24151;SDS011;12311;50.866;4.332;2023-02-18T06:15:05;3.72;;;0.90;;
24151;SDS011;12311;50.866;4.332;2023-02-18T06:17:31;0.80;;;0.80;;
24151;SDS011;12311;50.866;4.332;2023-02-18T06:19:57;6.18;;;0.70;;
24151;SDS011;12311;50.866;4.332;2023-02-18T06:22:22;9.73;;;1.10;;
24151;SDS011;12311;50.866;4.332;2023-02-18T06:24:48;1.00;;;0.68;;
24151;SDS011;12311;50.866;4.332;2023-02-18T06:27:14;3.42;;;0.55;;
24151;SDS011;12311;50.866;4.332;2023-02-18T06:29:39;3.00;;;0.80;;
24151;SDS011;12311;50.866;4.332;2023-02-18T06:32:05;1.48;;;1.08;;
24151;SDS011;12311;50.866;4.332;2023-02-18T06:34:31;1.45;;;1.13;;
24151;SDS011;12311;50.866;4.332;2023-02-18T06:36:56;2.55;;;0.95;;
24151;SDS011;12311;50.866;4.332;2023-02-18T06:39:22;8.80;;;1.42;;
24151;SDS011;12311;50.866;4.332;2023-02-18T06:41:48;8.45;;;1.13;;
24151;SDS011;12311;50.866;4.332;2023-02-18T06:44:13;5.05;;;0.90;;
24151;SDS011;12311;50.866;4.332;2023-02-18T06:46:40;1.67;;;1.10;;
24151;SDS011;12311;50.866;4.332;2023-02-18T06:49:06;1.60;;;0.85;;
24151;SDS011;12311;50.866;4.332;2023-02-18T06:51:32;5.60;;;0.90;;
24151;SDS011;12311;50.866;4.332;2023-02-18T06:53:57;6.25;;;1.13;;
24151;SDS011;12311;50.866;4.332;2023-02-18T06:56:23;4.90;;;1.73;;
24151;SDS011;12311;50.866;4.332;2023-02-18T06:58:49;3.13;;;0.80;;
24151;SDS011;12311;50.866;4.332;2023-02-18T07:01:14;7.50;;;1.10;;
24151;SDS011;12311;50.866;4.332;2023-02-18T07:03:40;3.33;;;0.80;;
24151;SDS011;12311;50.866;4.332;2023-02-18T07:06:06;6.25;;;1.40;;
24151;SDS011;12311;50.866;4.332;2023-02-18T07:08:32;2.03;;;0.65;;
24151;SDS011;12311;50.866;4.332;2023-02-18T07:11:00;2.75;;;0.90;;
24151;SDS011;12311;50.866;4.332;2023-02-18T07:13:25;6.53;;;1.33;;
24151;SDS011;12311;50.866;4.332;2023-02-18T07:15:51;4.93;;;0.73;;
24151;SDS011;12311;50.866;4.332;2023-02-18T07:18:17;3.30;;;0.98;;
24151;SDS011;12311;50.866;4.332;2023-02-18T07:20:42;1.67;;;1.00;;
24151;SDS011;12311;50.866;4.332;2023-02-18T07:23:08;0.73;;;0.60;;
24151;SDS011;12311;50.866;4.332;2023-02-18T07:25:35;3.40;;;0.93;;
24151;SDS011;12311;50.866;4.332;2023-02-18T07:28:00;9.15;;;0.77;;
24151;SDS011;12311;50.866;4.332;2023-02-18T07:30:26;1.90;;;0.70;;
24151;SDS011;12311;50.866;4.332;2023-02-18T07:32:52;3.88;;;1.10;;
24151;SDS011;12311;50.866;4.332;2023-02-18T07:35:18;6.80;;;1.77;;
24151;SDS011;12311;50.866;4.332;2023-02-18T07:37:45;3.00;;;1.00;;
24151;SDS011;12311;50.866;4.332;2023-02-18T07:40:13;3.00;;;0.70;;
24151;SDS011;12311;50.866;4.332;2023-02-18T07:42:40;2.50;;;0.70;;
24151;SDS011;12311;50.866;4.332;2023-02-18T07:45:06;3.67;;;0.80;;
24151;SDS011;12311;50.866;4.332;2023-02-18T07:47:32;3.85;;;1.05;;
24151;SDS011;12311;50.866;4.332;2023-02-18T07:49:58;1.15;;;0.45;;
24151;SDS011;12311;50.866;4.332;2023-02-18T07:52:24;3.15;;;0.95;;
24151;SDS011;12311;50.866;4.332;2023-02-18T07:54:51;4.18;;;0.50;;
24151;SDS011;12311;50.866;4.332;2023-02-18T07:57:17;1.27;;;0.70;;
24151;SDS011;12311;50.866;4.332;2023-02-18T07:59:42;8.60;;;1.52;;
24151;SDS011;12311;50.866;4.332;2023-02-18T08:02:12;4.85;;;1.25;;
24151;SDS011;12311;50.866;4.332;2023-02-18T08:04:43;2.38;;;0.88;;
24151;SDS011;12311;50.866;4.332;2023-02-18T08:07:13;1.92;;;1.63;;
24151;SDS011;12311;50.866;4.332;2023-02-18T08:09:41;5.68;;;2.08;;
24151;SDS011;12311;50.866;4.332;2023-02-18T08:12:07;3.35;;;0.85;;
24151;SDS011;12311;50.866;4.332;2023-02-18T08:14:33;1.95;;;1.08;;
24151;SDS011;12311;50.866;4.332;2023-02-18T08:16:58;2.05;;;1.42;;
24151;SDS011;12311;50.866;4.332;2023-02-18T08:19:24;4.55;;;0.80;;
24151;SDS011;12311;50.866;4.332;2023-02-18T08:21:50;3.60;;;1.88;;
24151;SDS011;12311;50.866;4.332;2023-02-18T08:24:15;6.93;;;0.73;;
24151;SDS011;12311;50.866;4.332;2023-02-18T08:26:41;4.30;;;1.35;;
24151;SDS011;12311;50.866;4.332;2023-02-18T08:29:07;1.38;;;0.68;;
24151;SDS011;12311;50.866;4.332;2023-02-18T08:31:32;5.78;;;0.60;;
24151;SDS011;12311;50.866;4.332;2023-02-18T08:33:58;2.45;;;0.68;;
24151;SDS011;12311;50.866;4.332;2023-02-18T08:36:25;1.75;;;0.60;;
24151;SDS011;12311;50.866;4.332;2023-02-18T08:38:52;4.97;;;0.85;;
24151;SDS011;12311;50.866;4.332;2023-02-18T08:41:18;0.60;;;0.60;;
24151;SDS011;12311;50.866;4.332;2023-02-18T08:43:44;3.30;;;0.80;;
24151;SDS011;12311;50.866;4.332;2023-02-18T08:46:11;9.23;;;1.80;;
24151;SDS011;12311;50.866;4.332;2023-02-18T08:48:36;8.07;;;0.52;;
24151;SDS011;12311;50.866;4.332;2023-02-18T08:51:16;1.48;;;0.88;;
24151;SDS011;12311;50.866;4.332;2023-02-18T08:53:43;1.05;;;0.68;;
24151;SDS011;12311;50.866;4.332;2023-02-18T08:56:11;3.38;;;0.50;;
24151;SDS011;12311;50.866;4.332;2023-02-18T08:58:38;0.75;;;0.75;;
24151;SDS011;12311;50.866;4.332;2023-02-18T09:01:05;1.23;;;0.60;;
24151;SDS011;12311;50.866;4.332;2023-02-18T09:03:32;1.27;;;0.77;;
24151;SDS011;12311;50.866;4.332;2023-02-18T09:05:58;3.58;;;0.93;;
24151;SDS011;12311;50.866;4.332;2023-02-18T09:08:24;3.90;;;1.17;;
24151;SDS011;12311;50.866;4.332;2023-02-18T09:10:53;3.65;;;1.23;;
24151;SDS011;12311;50.866;4.332;2023-02-18T09:13:23;0.68;;;0.68;;
24151;SDS011;12311;50.866;4.332;2023-02-18T09:16:03;5.03;;;1.08;;
24151;SDS011;12311;50.866;4.332;2023-02-18T09:18:31;5.82;;;1.33;;
24151;SDS011;12311;50.866;4.332;2023-02-18T09:20:59;3.58;;;0.80;;
24151;SDS011;12311;50.866;4.332;2023-02-18T09:23:29;5.85;;;1.00;;
24151;SDS011;12311;50.866;4.332;2023-02-18T09:25:55;7.32;;;1.15;;
24151;SDS011;12311;50.866;4.332;2023-02-18T09:28:22;0.90;;;0.60;;
24151;SDS011;12311;50.866;4.332;2023-02-18T09:30:48;1.10;;;0.50;;
24151;SDS011;12311;50.866;4.332;2023-02-18T09:33:14;8.77;;;1.40;;
24151;SDS011;12311;50.866;4.332;2023-02-18T09:35:41;0.63;;;0.60;;
24151;SDS011;12311;50.866;4.332;2023-02-18T09:38:08;4.68;;;0.98;;
24151;SDS011;12311;50.866;4.332;2023-02-18T09:40:36;1.13;;;0.55;;
24151;SDS011;12311;50.866;4.332;2023-02-18T09:43:12;6.63;;;0.68;;
24151;SDS011;12311;50.866;4.332;2023-02-18T09:45:54;0.57;;;0.57;;
24151;SDS011;12311;50.866;4.332;2023-02-18T09:48:24;4.22;;;0.70;;
24151;SDS011;12311;50.866;4.332;2023-02-18T09:50:52;3.78;;;0.98;;
24151;SDS011;12311;50.866;4.332;2023-02-18T09:53:18;1.05;;;0.60;;
24151;SDS011;12311;50.866;4.332;2023-02-18T09:55:47;2.95;;;0.65;;
24151;SDS011;12311;50.866;4.332;2023-02-18T09:58:16;1.20;;;1.10;;
24151;SDS011;12311;50.866;4.332;2023-02-18T10:01:09;3.92;;;0.73;;
24151;SDS011;12311;50.866;4.332;2023-02-18T10:03:36;5.10;;;0.85;;
24151;SDS011;12311;50.866;4.332;2023-02-18T10:06:05;4.10;;;0.80;;
24151;SDS011;12311;50.866;4.332;2023-02-18T10:08:43;0.95;;;0.70;;
24151;SDS011;12311;50.866;4.332;2023-02-18T10:11:16;1.88;;;0.70;;
24151;SDS011;12311;50.866;4.332;2023-02-18T10:13:45;2.85;;;0.55;;
24151;SDS011;12311;50.866;4.332;2023-02-18T10:16:14;2.55;;;0.70;;
24151;SDS011;12311;50.866;4.332;2023-02-18T10:18:43;5.22;;;1.50;;
24151;SDS011;12311;50.866;4.332;2023-02-18T10:21:46;0.80;;;0.40;;
24151;SDS011;12311;50.866;4.332;2023-02-18T10:24:07;2.42;;;0.68;;
24151;SDS011;12311;50.866;4.332;2023-02-18T10:26:57;0.98;;;0.90;;
24151;SDS011;12311;50.866;4.332;2023-02-18T10:29:24;2.17;;;0.93;;
24151;SDS011;12311;50.866;4.332;2023-02-18T10:34:41;1.00;;;0.55;;
24151;SDS011;12311;50.866;4.332;2023-02-18T10:40:02;2.83;;;0.93;;
24151;SDS011;12311;50.866;4.332;2023-02-18T10:45:18;0.50;;;0.50;;
24151;SDS011;12311;50.866;4.332;2023-02-18T10:50:55;1.80;;;0.73;;
24151;SDS011;12311;50.866;4.332;2023-02-18T10:55:59;8.25;;;0.60;;
24151;SDS011;12311;50.866;4.332;2023-02-18T10:58:42;1.42;;;0.57;;
24151;SDS011;12311;50.866;4.332;2023-02-18T11:01:14;3.67;;;0.80;;
24151;SDS011;12311;50.866;4.332;2023-02-18T11:03:44;7.65;;;1.08;;
24151;SDS011;12311;50.866;4.332;2023-02-18T11:06:31;1.60;;;1.00;;
24151;SDS011;12311;50.866;4.332;2023-02-18T11:09:02;0.50;;;0.43;;
24151;SDS011;12311;50.866;4.332;2023-02-18T11:11:30;2.47;;;0.60;;
24151;SDS011;12311;50.866;4.332;2023-02-18T11:14:05;8.10;;;1.77;;
24151;SDS011;12311;50.866;4.332;2023-02-18T11:16:38;6.20;;;0.87;;
24151;SDS011;12311;50.866;4.332;2023-02-18T11:25:02;1.60;;;0.70;;
24151;SDS011;12311;50.866;4.332;2023-02-18T11:27:45;4.75;;;0.95;;
24151;SDS011;12311;50.866;4.332;2023-02-18T11:30:21;6.20;;;0.90;;
24151;SDS011;12311;50.866;4.332;2023-02-18T11:32:53;5.82;;;0.77;;
24151;SDS011;12311;50.866;4.332;2023-02-18T11:37:49;5.10;;;0.85;;
24151;SDS011;12311;50.866;4.332;2023-02-18T11:40:28;1.05;;;0.77;;
24151;SDS011;12311;50.866;4.332;2023-02-18T11:45:36;5.47;;;1.42;;
24151;SDS011;12311;50.866;4.332;2023-02-18T11:48:06;2.75;;;1.05;;
24151;SDS011;12311;50.866;4.332;2023-02-18T11:50:39;2.72;;;0.85;;
24151;SDS011;12311;50.866;4.332;2023-02-18T11:55:56;6.55;;;1.20;;
24151;SDS011;12311;50.866;4.332;2023-02-18T11:58:24;0.73;;;0.40;;
24151;SDS011;12311;50.866;4.332;2023-02-18T12:00:51;5.63;;;0.90;;
24151;SDS011;12311;50.866;4.332;2023-02-18T12:06:03;2.05;;;0.75;;
24151;SDS011;12311;50.866;4.332;2023-02-18T12:09:19;4.50;;;1.67;;
24151;SDS011;12311;50.866;4.332;2023-02-18T12:11:33;3.85;;;0.98;;
24151;SDS011;12311;50.866;4.332;2023-02-18T12:14:07;4.32;;;0.75;;
24151;SDS011;12311;50.866;4.332;2023-02-18T12:16:42;8.48;;;1.23;;
24151;SDS011;12311;50.866;4.332;2023-02-18T12:22:17;10.55;;;1.35;;
24151;SDS011;12311;50.866;4.332;2023-02-18T12:33:00;2.95;;;0.80;;
24151;SDS011;12311;50.866;4.332;2023-02-18T12:41:31;6.05;;;1.17;;
24151;SDS011;12311;50.866;4.332;2023-02-18T12:47:15;3.83;;;0.70;;
24151;SDS011;12311;50.866;4.332;2023-02-18T12:50:08;10.57;;;1.10;;
24151;SDS011;12311;50.866;4.332;2023-02-18T13:08:50;1.73;;;0.73;;
24151;SDS011;12311;50.866;4.332;2023-02-18T13:11:44;6.60;;;2.03;;
24151;SDS011;12311;50.866;4.332;2023-02-18T13:14:29;1.00;;;0.90;;
24151;SDS011;12311;50.866;4.332;2023-02-18T13:16:59;1.50;;;0.50;;
24151;SDS011;12311;50.866;4.332;2023-02-18T13:19:32;4.38;;;0.82;;
24151;SDS011;12311;50.866;4.332;2023-02-18T13:22:04;2.05;;;0.70;;
24151;SDS011;12311;50.866;4.332;2023-02-18T13:24:34;4.53;;;1.17;;
24151;SDS011;12311;50.866;4.332;2023-02-18T13:27:08;3.25;;;0.90;;
24151;SDS011;12311;50.866;4.332;2023-02-18T13:32:38;5.80;;;1.73;;
24151;SDS011;12311;50.866;4.332;2023-02-18T13:35:44;1.35;;;0.70;;
24151;SDS011;12311;50.866;4.332;2023-02-18T13:38:30;4.05;;;1.20;;
24151;SDS011;12311;50.866;4.332;2023-02-18T13:41:12;2.80;;;1.10;;
24151;SDS011;12311;50.866;4.332;2023-02-18T13:43:38;5.20;;;0.85;;
24151;SDS011;12311;50.866;4.332;2023-02-18T13:48:29;1.85;;;0.80;;
24151;SDS011;12311;50.866;4.332;2023-02-18T13:51:04;2.95;;;0.90;;
24151;SDS011;12311;50.866;4.332;2023-02-18T13:53:31;1.33;;;0.80;;
24151;SDS011;12311;50.866;4.332;2023-02-18T13:56:07;6.15;;;1.50;;
24151;SDS011;12311;50.866;4.332;2023-02-18T14:10:00;4.43;;;1.38;;
24151;SDS011;12311;50.866;4.332;2023-02-18T14:12:36;0.73;;;0.70;;
24151;SDS011;12311;50.866;4.332;2023-02-18T14:17:43;1.33;;;1.00;;
24151;SDS011;12311;50.866;4.332;2023-02-18T14:29:00;3.70;;;0.80;;
24151;SDS011;12311;50.866;4.332;2023-02-18T14:37:06;5.03;;;1.13;;
24151;SDS011;12311;50.866;4.332;2023-02-18T14:42:36;1.67;;;0.90;;
24151;SDS011;12311;50.866;4.332;2023-02-18T14:45:48;1.05;;;0.90;;
24151;SDS011;12311;50.866;4.332;2023-02-18T14:51:08;1.20;;;0.82;;
24151;SDS011;12311;50.866;4.332;2023-02-18T14:53:38;7.82;;;1.48;;
24151;SDS011;12311;50.866;4.332;2023-02-18T14:56:07;3.67;;;1.08;;
24151;SDS011;12311;50.866;4.332;2023-02-18T14:58:38;5.80;;;2.40;;
24151;SDS011;12311;50.866;4.332;2023-02-18T15:03:38;2.15;;;0.80;;
24151;SDS011;12311;50.866;4.332;2023-02-18T15:06:20;4.63;;;1.00;;
24151;SDS011;12311;50.866;4.332;2023-02-18T15:08:46;4.22;;;1.00;;
24151;SDS011;12311;50.866;4.332;2023-02-18T15:11:12;5.85;;;1.42;;
24151;SDS011;12311;50.866;4.332;2023-02-18T15:13:42;2.15;;;0.93;;
24151;SDS011;12311;50.866;4.332;2023-02-18T15:16:15;7.32;;;1.90;;
24151;SDS011;12311;50.866;4.332;2023-02-18T15:18:48;1.88;;;1.00;;
24151;SDS011;12311;50.866;4.332;2023-02-18T15:21:36;2.80;;;0.85;;
24151;SDS011;12311;50.866;4.332;2023-02-18T15:24:47;1.98;;;0.60;;
24151;SDS011;12311;50.866;4.332;2023-02-18T15:26:54;4.50;;;1.20;;
24151;SDS011;12311;50.866;4.332;2023-02-18T15:29:27;5.50;;;1.52;;
24151;SDS011;12311;50.866;4.332;2023-02-18T15:31:55;5.35;;;1.35;;
24151;SDS011;12311;50.866;4.332;2023-02-18T15:36:53;4.93;;;2.13;;
24151;SDS011;12311;50.866;4.332;2023-02-18T15:39:20;5.65;;;1.30;;
24151;SDS011;12311;50.866;4.332;2023-02-18T15:41:46;4.32;;;1.27;;
24151;SDS011;12311;50.866;4.332;2023-02-18T15:44:19;4.95;;;1.48;;
24151;SDS011;12311;50.866;4.332;2023-02-18T15:46:48;4.35;;;0.98;;
24151;SDS011;12311;50.866;4.332;2023-02-18T15:49:14;3.90;;;1.98;;
24151;SDS011;12311;50.866;4.332;2023-02-18T15:51:44;5.45;;;1.55;;
24151;SDS011;12311;50.866;4.332;2023-02-18T15:54:14;3.97;;;1.10;;
24151;SDS011;12311;50.866;4.332;2023-02-18T15:56:44;6.45;;;1.70;;
24151;SDS011;12311;50.866;4.332;2023-02-18T16:01:52;4.85;;;0.93;;
24151;SDS011;12311;50.866;4.332;2023-02-18T16:04:20;2.70;;;1.08;;
24151;SDS011;12311;50.866;4.332;2023-02-18T16:06:48;2.80;;;1.30;;
24151;SDS011;12311;50.866;4.332;2023-02-18T16:09:18;1.58;;;1.15;;
24151;SDS011;12311;50.866;4.332;2023-02-18T16:11:49;7.03;;;1.70;;
24151;SDS011;12311;50.866;4.332;2023-02-18T16:14:22;2.35;;;1.38;;
24151;SDS011;12311;50.866;4.332;2023-02-18T16:17:34;2.60;;;1.00;;
24151;SDS011;12311;50.866;4.332;2023-02-18T16:19:54;3.60;;;1.25;;
24151;SDS011;12311;50.866;4.332;2023-02-18T16:25:06;4.05;;;0.90;;
24151;SDS011;12311;50.866;4.332;2023-02-18T16:27:46;1.70;;;1.02;;
24151;SDS011;12311;50.866;4.332;2023-02-18T16:30:29;1.95;;;1.17;;
24151;SDS011;12311;50.866;4.332;2023-02-18T16:32:56;2.22;;;1.17;;
24151;SDS011;12311;50.866;4.332;2023-02-18T16:35:24;3.83;;;1.27;;
24151;SDS011;12311;50.866;4.332;2023-02-18T16:37:52;4.72;;;1.23;;
24151;SDS011;12311;50.866;4.332;2023-02-18T16:40:20;9.00;;;1.48;;
24151;SDS011;12311;50.866;4.332;2023-02-18T16:48:28;2.47;;;1.42;;
24151;SDS011;12311;50.866;4.332;2023-02-18T16:51:02;1.77;;;1.17;;
24151;SDS011;12311;50.866;4.332;2023-02-18T16:53:51;2.30;;;1.45;;
24151;SDS011;12311;50.866;4.332;2023-02-18T16:56:18;8.38;;;1.05;;
24151;SDS011;12311;50.866;4.332;2023-02-18T16:58:49;1.13;;;0.85;;
24151;SDS011;12311;50.866;4.332;2023-02-18T17:03:53;2.13;;;1.33;;
24151;SDS011;12311;50.866;4.332;2023-02-18T17:06:19;1.98;;;1.15;;
24151;SDS011;12311;50.866;4.332;2023-02-18T17:08:45;3.35;;;1.30;;
24151;SDS011;12311;50.866;4.332;2023-02-18T17:11:16;2.83;;;1.50;;
24151;SDS011;12311;50.866;4.332;2023-02-18T17:13:48;4.15;;;2.10;;
24151;SDS011;12311;50.866;4.332;2023-02-18T17:16:14;2.55;;;1.23;;
24151;SDS011;12311;50.866;4.332;2023-02-18T17:18:40;2.20;;;1.20;;
24151;SDS011;12311;50.866;4.332;2023-02-18T17:21:17;2.85;;;1.85;;
24151;SDS011;12311;50.866;4.332;2023-02-18T17:23:44;3.33;;;1.33;;
24151;SDS011;12311;50.866;4.332;2023-02-18T17:26:15;2.92;;;1.40;;
24151;SDS011;12311;50.866;4.332;2023-02-18T17:28:49;2.72;;;1.67;;
24151;SDS011;12311;50.866;4.332;2023-02-18T17:31:38;2.13;;;1.55;;
24151;SDS011;12311;50.866;4.332;2023-02-18T17:34:04;7.82;;;1.50;;
24151;SDS011;12311;50.866;4.332;2023-02-18T17:36:31;1.55;;;1.17;;
24151;SDS011;12311;50.866;4.332;2023-02-18T17:38:57;1.50;;;1.05;;
24151;SDS011;12311;50.866;4.332;2023-02-18T17:41:24;2.00;;;1.40;;
24151;SDS011;12311;50.866;4.332;2023-02-18T17:43:50;2.83;;;1.63;;
24151;SDS011;12311;50.866;4.332;2023-02-18T17:46:16;2.08;;;1.30;;
24151;SDS011;12311;50.866;4.332;2023-02-18T17:48:43;3.28;;;1.60;;
24151;SDS011;12311;50.866;4.332;2023-02-18T17:51:23;7.95;;;1.60;;
24151;SDS011;12311;50.866;4.332;2023-02-18T17:53:53;2.78;;;1.27;;
24151;SDS011;12311;50.866;4.332;2023-02-18T17:56:20;5.13;;;1.35;;
24151;SDS011;12311;50.866;4.332;2023-02-18T17:58:46;1.55;;;1.40;;